createdAt,value
2018-08-03T00:14:29.658Z,53.2
2018-08-03T00:31:19.526Z,53.6
2018-08-03T00:48:09.252Z,54.4
2018-08-03T01:04:58.391Z,54.8
2018-08-03T01:21:47.513Z,55.2
2018-08-03T01:38:37.206Z,56.0
2018-08-03T01:55:25.107Z,56.4
2018-08-03T02:12:13.763Z,56.8
2018-08-03T02:29:02.081Z,57.6
2018-08-03T02:45:50.253Z,58.0
2018-08-03T03:02:38.406Z,58.4
2018-08-03T03:36:13.870Z,59.2
2018-08-03T03:53:01.152Z,59.6
2018-08-03T04:09:48.324Z,60.0
2018-08-03T04:26:35.464Z,60.8
2018-08-03T04:43:22.659Z,60.8
2018-08-03T05:00:10.506Z,60.4
2018-08-03T05:16:58.595Z,60.8
2018-08-03T05:33:46.963Z,60.4
2018-08-03T05:50:36.236Z,60.0
2018-08-03T06:00:41.123Z,59.6
2018-08-03T06:14:08.632Z,59.6
2018-08-03T06:27:36.760Z,58.8
2018-08-03T06:44:27.457Z,58.4
2018-08-03T06:54:34.187Z,58.0
2018-08-03T07:04:41.507Z,57.2
2018-08-03T07:21:33.922Z,56.8
2018-08-03T07:35:04.198Z,56.8
2018-08-03T07:45:12.316Z,56.4
2018-08-03T08:02:06.855Z,56.4
2018-08-03T08:12:16.034Z,55.6
2018-08-03T08:22:25.549Z,54.8
2018-08-03T08:39:21.890Z,53.6
2018-08-03T08:56:18.408Z,53.2
2018-08-03T09:08:10.102Z,52.8
2018-08-03T09:21:44.606Z,50.4
2018-08-03T09:38:41.703Z,50.0
2018-08-03T09:50:34.348Z,48.4
2018-08-03T10:05:51.019Z,46.4
2018-08-03T10:16:02.253Z,46.4
2018-08-03T10:33:01.239Z,45.2
2018-08-03T10:46:36.753Z,43.6
2018-08-03T11:00:12.104Z,42.4
2018-08-03T11:17:12.100Z,41.2
2018-08-03T11:34:12.378Z,40.0
2018-08-03T11:47:48.609Z,39.2
2018-08-03T11:54:37.018Z,37.2
2018-08-03T12:11:37.512Z,38.4
2018-08-03T12:25:14.315Z,37.6
2018-08-03T12:42:15.579Z,36.4
2018-08-03T12:59:16.429Z,36.4
2018-08-03T13:16:17.519Z,36.4
2018-08-03T13:33:18.945Z,35.2
2018-08-03T14:07:20.605Z,36.0
2018-08-03T14:24:21.339Z,35.6
2018-08-03T14:41:21.960Z,35.6
2018-08-03T14:58:22.692Z,36.0
2018-08-03T15:15:23.319Z,35.2
2018-08-03T15:32:24.391Z,35.2
2018-08-03T15:40:54.906Z,34.8
2018-08-03T15:57:56.190Z,34.0
2018-08-03T16:06:26.426Z,34.4
2018-08-03T16:23:27.085Z,34.8
2018-08-03T16:40:27.240Z,35.6
2018-08-03T16:47:15.950Z,35.2
2018-08-03T16:54:03.854Z,35.2
2018-08-03T17:02:34.728Z,34.4
2018-08-03T17:19:37.241Z,34.0
2018-08-03T17:28:08.539Z,34.4
2018-08-03T17:36:39.077Z,35.2
2018-08-03T17:43:28.315Z,34.8
2018-08-03T17:50:15.359Z,36.0
2018-08-03T18:05:33.023Z,36.8
2018-08-03T18:19:08.721Z,38.0
2018-08-03T18:36:07.633Z,38.8
2018-08-03T18:53:05.850Z,39.6
2018-08-03T19:06:39.596Z,41.6
2018-08-03T19:16:49.573Z,43.2
2018-08-03T19:26:59.382Z,45.6
2018-08-03T19:43:55.029Z,46.8
2018-08-03T20:00:50.539Z,47.6
2018-08-03T20:10:59.429Z,49.6
2018-08-03T20:27:53.871Z,48.8
2018-08-03T20:44:48.091Z,50.4
2018-08-03T21:01:41.798Z,50.8
2018-08-03T21:18:35.030Z,51.2
2018-08-03T21:35:27.979Z,52.0
2018-08-03T22:09:12.900Z,51.2
2018-08-03T22:26:04.969Z,50.4
2018-08-03T22:42:56.819Z,50.8
2018-08-03T22:59:48.232Z,51.2
2018-08-03T23:16:39.494Z,51.2
2018-08-03T23:33:30.621Z,51.2
2018-08-03T23:50:21.518Z,51.2
